createdAt,value
2018-06-27T00:00:13.429Z,99090.75
2018-06-27T00:02:41.966Z,99085.25
2018-06-27T00:05:10.336Z,99079.16
2018-06-27T00:07:38.817Z,99079.02
2018-06-27T00:10:07.280Z,99074.81
2018-06-27T00:12:35.798Z,99066.87
2018-06-27T00:15:04.493Z,99058.99
2018-06-27T00:17:32.957Z,99059.00
2018-06-27T00:20:01.534Z,99055.07
2018-06-27T00:22:30.042Z,99052.69
2018-06-27T00:24:58.381Z,99052.22
2018-06-27T00:27:26.800Z,99057.78
2018-06-27T00:29:55.182Z,99046.27
2018-06-27T00:32:23.694Z,99038.84
2018-06-27T00:34:52.250Z,99035.27
2018-06-27T00:37:20.592Z,99036.23
2018-06-27T00:39:49.183Z,99039.84
2018-06-27T00:42:17.772Z,99039.36
2018-06-27T00:44:46.251Z,99040.63
2018-06-27T00:47:14.733Z,99028.81
2018-06-27T00:49:43.109Z,99028.11
2018-06-27T00:52:11.451Z,99021.98
2018-06-27T00:54:39.978Z,99020.13
2018-06-27T00:57:08.444Z,99024.16
2018-06-27T00:59:36.873Z,99026.27
2018-06-27T01:02:05.201Z,99033.42
2018-06-27T01:04:33.685Z,99042.80
2018-06-27T01:07:02.149Z,99045.68
2018-06-27T01:09:30.752Z,99050.26
2018-06-27T01:11:59.118Z,99059.48
2018-06-27T01:14:27.514Z,99060.05
2018-06-27T01:16:55.994Z,99061.30
2018-06-27T01:19:24.338Z,99061.52
2018-06-27T01:21:52.743Z,99058.83
2018-06-27T01:24:21.362Z,99056.94
2018-06-27T01:26:49.817Z,99056.58
2018-06-27T01:29:18.097Z,99046.05
2018-06-27T01:31:46.497Z,99044.60
2018-06-27T01:34:15.054Z,99030.33
2018-06-27T01:36:43.437Z,99038.74
2018-06-27T01:39:11.813Z,99026.16
2018-06-27T01:41:40.116Z,99018.81
2018-06-27T01:44:08.469Z,99021.12
2018-06-27T01:46:36.953Z,99008.92
2018-06-27T01:49:05.424Z,99003.92
2018-06-27T01:51:33.711Z,99006.03
2018-06-27T01:54:02.302Z,99007.55
2018-06-27T01:56:30.771Z,98993.74
2018-06-27T01:58:59.155Z,98994.55
2018-06-27T02:01:27.533Z,99001.31
2018-06-27T02:03:55.917Z,99005.18
2018-06-27T02:06:24.392Z,99000.64
2018-06-27T02:08:52.670Z,98999.91
2018-06-27T02:11:21.040Z,98996.21
2018-06-27T02:13:49.429Z,98999.21
2018-06-27T02:16:17.908Z,99002.34
2018-06-27T02:18:46.293Z,99003.85
2018-06-27T02:21:14.805Z,99007.33
2018-06-27T02:23:43.136Z,99005.30
2018-06-27T02:26:11.632Z,99001.65
2018-06-27T02:28:39.902Z,98991.75
2018-06-27T02:31:08.285Z,98982.72
2018-06-27T02:33:36.826Z,98977.03
2018-06-27T02:36:05.235Z,98957.87
2018-06-27T02:38:33.621Z,98960.94
2018-06-27T02:41:01.874Z,98961.34
2018-06-27T02:43:32.878Z,98961.23
2018-06-27T02:46:01.329Z,98968.95
2018-06-27T02:48:29.793Z,98966.11
2018-06-27T02:50:57.973Z,98955.12
2018-06-27T02:53:26.549Z,98952.66
2018-06-27T02:55:54.738Z,98948.84
2018-06-27T02:58:22.846Z,98957.73
2018-06-27T03:00:51.190Z,98959.69
2018-06-27T03:03:19.674Z,98956.41
2018-06-27T03:05:47.946Z,98962.13
2018-06-27T03:08:16.225Z,98965.04
2018-06-27T03:10:44.502Z,98971.69
2018-06-27T03:13:12.872Z,98978.69
2018-06-27T03:15:41.041Z,98982.20
2018-06-27T03:18:09.356Z,98978.17
2018-06-27T03:20:37.907Z,98985.45
2018-06-27T03:23:06.284Z,98999.14
2018-06-27T03:25:34.770Z,98998.84
2018-06-27T03:28:03.142Z,98995.33
2018-06-27T03:30:31.318Z,98982.81
2018-06-27T03:32:59.913Z,98979.66
2018-06-27T03:35:28.072Z,98981.42
2018-06-27T03:37:56.454Z,98991.69
2018-06-27T03:40:25.049Z,98984.70
2018-06-27T03:42:53.361Z,98981.79
2018-06-27T03:45:21.917Z,98976.73
2018-06-27T03:47:50.085Z,98969.09
2018-06-27T03:50:18.564Z,98963.05
2018-06-27T03:52:48.154Z,98973.41
2018-06-27T03:55:16.553Z,98972.61
2018-06-27T03:57:45.294Z,98961.64
2018-06-27T04:00:13.726Z,98948.95
2018-06-27T04:02:42.336Z,98946.08
2018-06-27T04:05:10.697Z,98942.34
2018-06-27T04:07:39.066Z,98939.98
2018-06-27T04:10:08.653Z,98942.44
2018-06-27T04:12:37.208Z,98943.83
2018-06-27T04:15:05.564Z,98937.71
2018-06-27T04:17:33.965Z,98936.91
2018-06-27T04:20:02.352Z,98938.14
2018-06-27T04:22:34.557Z,98940.41
2018-06-27T04:25:02.845Z,98941.96
2018-06-27T04:27:31.860Z,98946.43
2018-06-27T04:30:01.722Z,98939.03
2018-06-27T04:32:30.221Z,98926.89
2018-06-27T04:34:59.493Z,98926.70
2018-06-27T04:37:27.816Z,98934.53
2018-06-27T04:39:56.174Z,98935.07
2018-06-27T04:42:24.573Z,98935.96
2018-06-27T04:44:53.130Z,98932.47
2018-06-27T04:47:21.409Z,98931.12
2018-06-27T04:49:49.874Z,98927.19
2018-06-27T04:52:18.417Z,98925.05
2018-06-27T04:54:46.799Z,98920.38
2018-06-27T04:57:15.262Z,98922.42
2018-06-27T04:59:43.550Z,98915.56
2018-06-27T05:02:11.802Z,98912.27
2018-06-27T05:04:39.961Z,98924.74
2018-06-27T05:07:08.405Z,98927.05
2018-06-27T05:09:36.721Z,98945.79
2018-06-27T05:12:05.012Z,98936.08
2018-06-27T05:14:33.649Z,98941.56
2018-06-27T05:17:01.868Z,98936.25
2018-06-27T05:19:30.237Z,98930.60
2018-06-27T05:21:58.846Z,98932.20
2018-06-27T05:24:27.110Z,98931.98
2018-06-27T05:26:55.633Z,98918.53
2018-06-27T05:29:23.964Z,98920.55
2018-06-27T05:31:52.341Z,98919.14
2018-06-27T05:34:20.670Z,98918.03
2018-06-27T05:36:49.095Z,98918.33
2018-06-27T05:39:18.186Z,98934.94
2018-06-27T05:41:47.032Z,98935.27
2018-06-27T05:44:16.048Z,98936.11
2018-06-27T05:46:45.524Z,98926.00
2018-06-27T05:49:14.545Z,98920.03
2018-06-27T05:51:43.079Z,98915.94
2018-06-27T05:54:11.561Z,98917.44
2018-06-27T05:56:40.131Z,98918.41
2018-06-27T05:59:08.598Z,98917.29
2018-06-27T06:01:37.036Z,98922.69
2018-06-27T06:04:05.561Z,98924.76
2018-06-27T06:06:34.263Z,98926.27
2018-06-27T06:09:02.914Z,98928.16
2018-06-27T06:11:31.374Z,98925.00
2018-06-27T06:14:00.007Z,98919.95
2018-06-27T06:16:28.444Z,98919.01
2018-06-27T06:18:56.777Z,98919.78
2018-06-27T06:21:25.134Z,98919.69
2018-06-27T06:23:53.372Z,98915.55
2018-06-27T06:26:21.705Z,98923.02
2018-06-27T06:28:49.973Z,98929.47
2018-06-27T06:31:18.401Z,98927.51
2018-06-27T06:33:46.844Z,98932.05
2018-06-27T06:36:15.313Z,98926.13
2018-06-27T06:38:43.800Z,98929.53
2018-06-27T06:41:12.073Z,98939.05
2018-06-27T06:43:40.498Z,98936.77
2018-06-27T06:46:08.897Z,98938.62
2018-06-27T06:48:37.318Z,98938.62
2018-06-27T06:51:05.835Z,98940.30
2018-06-27T06:53:34.254Z,98935.09
2018-06-27T06:56:02.802Z,98926.80
2018-06-27T06:58:31.481Z,98925.17
2018-06-27T07:00:59.716Z,98929.47
2018-06-27T07:03:28.097Z,98930.23
2018-06-27T07:05:56.312Z,98926.67
2018-06-27T07:08:24.766Z,98923.22
2018-06-27T07:10:53.043Z,98930.00
2018-06-27T07:13:21.345Z,98934.91
2018-06-27T07:15:49.580Z,98936.55
2018-06-27T07:18:17.764Z,98936.13
2018-06-27T07:20:45.982Z,98929.88
2018-06-27T07:23:14.227Z,98923.36
2018-06-27T07:25:42.816Z,98925.06
2018-06-27T07:28:11.330Z,98924.16
2018-06-27T07:30:46.418Z,98920.50
2018-06-27T07:33:14.629Z,98914.48
2018-06-27T07:35:43.137Z,98914.00
2018-06-27T07:38:12.485Z,98913.73
2018-06-27T07:40:41.105Z,98912.40
2018-06-27T07:43:09.550Z,98908.31
2018-06-27T07:45:38.026Z,98898.89
2018-06-27T08:13:49.957Z,98898.06
2018-06-27T08:49:05.274Z,98891.36
2018-06-27T09:33:36.034Z,98858.47
2018-06-27T09:36:04.637Z,98858.83
2018-06-27T09:38:32.884Z,98859.38
2018-06-27T09:41:01.156Z,98871.13
2018-06-27T09:43:29.689Z,98865.65
2018-06-27T09:45:58.250Z,98860.75
2018-06-27T09:48:26.528Z,98856.64
2018-06-27T09:50:55.112Z,98860.67
2018-06-27T09:53:23.673Z,98849.94
2018-06-27T09:55:51.932Z,98849.87
2018-06-27T09:58:20.120Z,98847.01
2018-06-27T10:00:48.646Z,98848.41
2018-06-27T10:03:17.137Z,98845.35
2018-06-27T10:05:45.665Z,98847.34
2018-06-27T10:08:14.250Z,98852.48
2018-06-27T10:10:42.630Z,98847.27
2018-06-27T10:13:11.136Z,98846.41
2018-06-27T10:15:39.560Z,98846.53
2018-06-27T10:18:07.966Z,98846.84
2018-06-27T10:20:36.172Z,98845.68
2018-06-27T10:23:04.630Z,98843.42
2018-06-27T10:25:32.947Z,98840.52
2018-06-27T10:28:01.268Z,98845.56
2018-06-27T10:30:29.758Z,98849.69
2018-06-27T10:32:58.129Z,98840.77
2018-06-27T10:35:26.425Z,98827.61
2018-06-27T10:37:55.031Z,98828.41
2018-06-27T10:40:23.542Z,98833.30
2018-06-27T10:42:51.954Z,98844.24
2018-06-27T10:45:20.482Z,98841.15
2018-06-27T10:47:48.826Z,98825.10
2018-06-27T10:50:17.106Z,98823.52
2018-06-27T10:52:45.628Z,98828.67
2018-06-27T10:55:18.782Z,98830.19
2018-06-27T10:57:47.308Z,98825.10
2018-06-27T11:00:15.957Z,98827.84
2018-06-27T11:02:44.334Z,98814.80
2018-06-27T11:05:12.860Z,98808.64
2018-06-27T11:07:41.418Z,98821.41
2018-06-27T11:10:09.886Z,98817.73
2018-06-27T11:12:38.423Z,98817.61
2018-06-27T11:15:07.543Z,98818.41
2018-06-27T11:17:36.131Z,98804.20
2018-06-27T11:20:04.748Z,98799.66
2018-06-27T11:22:33.234Z,98796.87
2018-06-27T11:25:02.066Z,98805.39
2018-06-27T11:27:30.605Z,98799.56
2018-06-27T11:29:59.041Z,98796.23
2018-06-27T11:32:27.646Z,98788.86
2018-06-27T11:34:56.250Z,98787.00
2018-06-27T11:37:24.476Z,98784.16
2018-06-27T11:39:52.877Z,98781.48
2018-06-27T11:42:21.387Z,98784.48
2018-06-27T11:44:49.814Z,98791.52
2018-06-27T11:47:18.489Z,98779.80
2018-06-27T11:49:46.701Z,98775.29
2018-06-27T11:52:15.226Z,98768.62
2018-06-27T11:54:43.770Z,98768.95
2018-06-27T11:57:12.130Z,98764.59
2018-06-27T11:59:40.557Z,98761.74
2018-06-27T12:02:08.905Z,98755.04
2018-06-27T12:04:37.381Z,98747.71
2018-06-27T12:07:05.763Z,98739.71
2018-06-27T12:09:34.154Z,98749.89
2018-06-27T12:12:02.756Z,98745.03
2018-06-27T12:14:31.341Z,98740.00
2018-06-27T12:17:00.046Z,98743.17
2018-06-27T12:19:28.442Z,98744.20
2018-06-27T12:21:56.965Z,98742.17
2018-06-27T12:24:25.529Z,98734.69
2018-06-27T12:27:00.342Z,98734.34
2018-06-27T12:29:28.902Z,98734.87
2018-06-27T12:31:57.221Z,98731.83
2018-06-27T12:34:25.710Z,98723.30
2018-06-27T12:36:54.047Z,98719.27
2018-06-27T12:39:22.574Z,98726.15
2018-06-27T12:41:51.293Z,98732.48
2018-06-27T12:44:19.891Z,98730.31
2018-06-27T12:46:48.313Z,98732.28
2018-06-27T12:49:16.804Z,98730.97
2018-06-27T12:51:45.463Z,98726.79
2018-06-27T12:54:13.890Z,98727.61
2018-06-27T12:56:42.341Z,98731.11
2018-06-27T12:59:10.874Z,98728.11
2018-06-27T13:01:39.318Z,98733.50
2018-06-27T13:04:07.893Z,98734.09
2018-06-27T13:06:36.516Z,98725.19
2018-06-27T13:09:08.085Z,98729.94
2018-06-27T13:11:37.137Z,98721.47
2018-06-27T13:14:05.839Z,98728.14
2018-06-27T13:16:34.400Z,98727.78
2018-06-27T13:19:02.934Z,98717.94
2018-06-27T13:21:31.360Z,98713.79
2018-06-27T13:23:59.789Z,98714.41
2018-06-27T13:26:28.266Z,98721.14
2018-06-27T13:28:56.809Z,98719.44
2018-06-27T13:31:25.608Z,98717.78
2018-06-27T13:33:54.257Z,98725.14
2018-06-27T13:36:22.609Z,98715.44
2018-06-27T13:38:51.173Z,98714.59
2018-06-27T13:41:19.410Z,98712.93
2018-06-27T13:43:47.917Z,98716.95
2018-06-27T13:46:16.201Z,98721.78
2018-06-27T13:48:44.709Z,98724.22
2018-06-27T13:51:13.043Z,98729.52
2018-06-27T13:53:41.434Z,98724.62
2018-06-27T13:56:10.087Z,98726.88
2018-06-27T13:58:38.373Z,98727.58
2018-06-27T14:01:06.869Z,98724.30
2018-06-27T14:03:35.377Z,98717.04
2018-06-27T14:06:03.833Z,98713.40
2018-06-27T14:08:32.355Z,98697.16
2018-06-27T14:11:00.825Z,98688.14
2018-06-27T14:13:29.164Z,98687.48
2018-06-27T14:15:57.555Z,98677.30
2018-06-27T14:18:26.074Z,98672.63
2018-06-27T14:20:54.497Z,98660.60
2018-06-27T14:23:23.238Z,98662.94
2018-06-27T14:25:51.713Z,98658.23
2018-06-27T14:28:20.005Z,98646.88
2018-06-27T14:30:48.017Z,98635.81
2018-06-27T14:33:16.239Z,98625.62
2018-06-27T14:35:44.677Z,98626.58
2018-06-27T14:38:13.221Z,98625.69
2018-06-27T14:40:41.637Z,98627.23
2018-06-27T14:43:09.935Z,98623.28
2018-06-27T14:45:38.447Z,98618.97
2018-06-27T14:48:07.024Z,98618.47
2018-06-27T14:50:35.467Z,98616.92
2018-06-27T14:53:03.990Z,98604.72
2018-06-27T14:55:32.442Z,98612.94
2018-06-27T14:58:00.801Z,98610.75
2018-06-27T15:00:29.443Z,98613.26
2018-06-27T15:02:57.890Z,98620.61
2018-06-27T15:05:26.113Z,98627.48
2018-06-27T15:07:54.360Z,98624.97
2018-06-27T15:10:22.914Z,98636.19
2018-06-27T15:12:51.294Z,98631.03
2018-06-27T15:15:19.605Z,98642.55
2018-06-27T15:17:47.950Z,98648.25
2018-06-27T15:20:16.328Z,98648.25
2018-06-27T15:22:44.621Z,98650.11
2018-06-27T15:25:13.228Z,98655.45
2018-06-27T15:27:41.576Z,98655.77
2018-06-27T15:30:09.784Z,98657.77
2018-06-27T15:32:38.052Z,98664.97
2018-06-27T15:35:06.505Z,98661.96
2018-06-27T15:37:34.915Z,98658.28
2018-06-27T15:40:03.354Z,98664.46
2018-06-27T15:42:31.533Z,98665.47
2018-06-27T15:45:00.062Z,98664.30
2018-06-27T15:47:28.295Z,98665.63
2018-06-27T15:49:56.866Z,98666.45
2018-06-27T15:52:25.365Z,98678.00
2018-06-27T15:54:53.431Z,98678.49
2018-06-27T15:57:21.739Z,98681.00
2018-06-27T15:59:52.884Z,98683.33
2018-06-27T16:02:21.636Z,98683.67
2018-06-27T16:04:50.033Z,98686.02
2018-06-27T16:07:21.193Z,98679.34
2018-06-27T16:09:50.462Z,98677.48
2018-06-27T16:12:18.738Z,98675.66
2018-06-27T16:14:47.253Z,98674.30
2018-06-27T16:17:15.928Z,98678.99
2018-06-27T16:19:44.101Z,98670.65
2018-06-27T16:22:12.673Z,98676.33
2018-06-27T16:24:40.846Z,98671.33
2018-06-27T16:27:09.259Z,98682.86
2018-06-27T16:29:37.782Z,98674.47
2018-06-27T16:32:06.127Z,98683.48
2018-06-27T16:34:34.548Z,98678.34
2018-06-27T16:37:03.057Z,98676.15
2018-06-27T16:39:31.539Z,98681.52
2018-06-27T16:42:07.677Z,98684.98
2018-06-27T16:44:41.450Z,98682.86
2018-06-27T16:47:12.704Z,98678.83
2018-06-27T16:50:04.886Z,98678.50
2018-06-27T16:52:41.564Z,98676.66
2018-06-27T16:55:13.136Z,98673.30
2018-06-27T16:58:00.532Z,98683.67
2018-06-27T17:00:38.100Z,98685.34
2018-06-27T17:03:13.812Z,98692.88
2018-06-27T17:05:45.394Z,98701.20
2018-06-27T17:08:53.247Z,98700.05
2018-06-27T17:11:31.837Z,98696.62
2018-06-27T17:14:00.541Z,98698.63
2018-06-27T17:16:28.841Z,98695.02
2018-06-27T17:18:57.493Z,98700.20
2018-06-27T17:21:26.210Z,98699.20
2018-06-27T17:23:54.917Z,98692.84
2018-06-27T17:26:23.744Z,98697.19
2018-06-27T17:28:52.418Z,98703.03
2018-06-27T17:31:21.054Z,98704.37
2018-06-27T17:33:49.887Z,98706.37
2018-06-27T17:36:18.491Z,98714.66
2018-06-27T17:38:47.915Z,98712.33
2018-06-27T17:41:16.364Z,98709.31
2018-06-27T17:43:44.812Z,98710.06
2018-06-27T17:46:13.381Z,98713.34
2018-06-27T17:48:42.100Z,98712.33
2018-06-27T17:51:10.669Z,98706.38
2018-06-27T17:53:39.174Z,98709.05
2018-06-27T17:56:07.868Z,98706.14
2018-06-27T17:58:36.513Z,98713.06
2018-06-27T18:01:05.054Z,98716.58
2018-06-27T18:03:33.726Z,98718.70
2018-06-27T18:06:02.373Z,98705.70
2018-06-27T18:08:30.487Z,98710.01
2018-06-27T18:10:58.987Z,98709.72
2018-06-27T18:13:27.490Z,98707.52
2018-06-27T18:15:56.697Z,98703.70
2018-06-27T18:18:25.310Z,98705.22
2018-06-27T18:20:53.683Z,98702.59
2018-06-27T18:23:22.278Z,98704.11
2018-06-27T18:25:51.010Z,98710.74
2018-06-27T18:28:19.618Z,98714.66
2018-06-27T18:30:48.214Z,98713.67
2018-06-27T18:33:17.625Z,98724.67
2018-06-27T18:35:56.353Z,98728.15
2018-06-27T18:38:24.892Z,98731.70
2018-06-27T18:40:53.483Z,98726.42
2018-06-27T18:43:22.299Z,98727.87
2018-06-27T18:45:50.931Z,98728.05
2018-06-27T18:48:19.465Z,98720.77
2018-06-27T18:50:48.335Z,98729.39
2018-06-27T18:53:16.863Z,98734.68
2018-06-27T18:55:52.161Z,98738.63
2018-06-27T18:58:20.597Z,98738.01
2018-06-27T19:00:49.272Z,98731.70
2018-06-27T19:03:17.595Z,98737.28
2018-06-27T19:05:46.347Z,98746.42
2018-06-27T19:08:14.523Z,98744.25
2018-06-27T19:10:42.502Z,98744.02
2018-06-27T19:13:10.595Z,98748.44
2018-06-27T19:15:38.615Z,98752.83
2018-06-27T19:18:06.677Z,98753.69
2018-06-27T19:20:34.881Z,98758.45
2018-06-27T19:23:03.222Z,98765.80
2018-06-27T19:25:37.983Z,98766.37
2018-06-27T19:28:06.415Z,98763.48
2018-06-27T19:30:34.463Z,98772.64
2018-06-27T19:37:26.763Z,98775.66
2018-06-27T19:39:55.146Z,98770.03
2018-06-27T19:42:23.102Z,98771.77
2018-06-27T19:44:51.161Z,98768.09
2018-06-27T19:47:19.463Z,98763.30
2018-06-27T19:49:48.975Z,98762.84
2018-06-27T19:52:17.283Z,98765.18
2018-06-27T19:54:45.606Z,98770.36
2018-06-27T19:57:14.117Z,98765.02
2018-06-27T19:59:42.457Z,98765.13
2018-06-27T20:02:10.705Z,98767.66
2018-06-27T20:04:38.663Z,98767.57
2018-06-27T20:07:07.218Z,98764.23
2018-06-27T20:13:08.492Z,98751.48
2018-06-27T20:15:36.938Z,98749.34
2018-06-27T20:18:05.438Z,98738.79
2018-06-27T20:20:33.810Z,98732.02
2018-06-27T20:23:02.177Z,98722.61
2018-06-27T20:25:30.762Z,98726.12
2018-06-27T20:27:59.237Z,98723.77
2018-06-27T20:30:27.420Z,98719.28
2018-06-27T20:32:55.786Z,98716.45
2018-06-27T20:35:24.174Z,98718.91
2018-06-27T20:37:52.762Z,98724.42
2018-06-27T20:40:21.140Z,98724.32
2018-06-27T20:42:49.504Z,98720.77
2018-06-27T20:45:17.811Z,98720.47
2018-06-27T20:47:46.272Z,98727.45
2018-06-27T20:50:14.990Z,98735.58
2018-06-27T20:52:43.354Z,98734.89
2018-06-27T20:55:11.788Z,98737.30
2018-06-27T20:57:39.955Z,98731.00
2018-06-27T21:00:08.525Z,98730.38
2018-06-27T21:02:36.934Z,98731.61
2018-06-27T21:05:05.457Z,98723.85
2018-06-27T21:07:33.998Z,98722.61
2018-06-27T21:10:02.127Z,98719.41
2018-06-27T21:12:30.546Z,98712.95
2018-06-27T21:14:58.818Z,98709.90
2018-06-27T21:17:27.054Z,98710.28
2018-06-27T21:19:55.369Z,98698.31
2018-06-27T21:22:23.751Z,98698.45
2018-06-27T21:24:52.061Z,98689.80
2018-06-27T21:27:20.507Z,98676.56
2018-06-27T21:29:48.778Z,98667.31
2018-06-27T21:32:17.193Z,98657.86
2018-06-27T21:34:45.743Z,98650.59
2018-06-27T21:37:14.122Z,98644.23
2018-06-27T21:39:42.397Z,98648.50
2018-06-27T21:42:10.378Z,98654.22
2018-06-27T21:44:38.890Z,98644.61
2018-06-27T21:47:07.222Z,98645.84
2018-06-27T21:49:35.596Z,98647.09
2018-06-27T21:52:04.077Z,98643.72
2018-06-27T21:54:32.491Z,98644.42
2018-06-27T21:57:00.933Z,98650.30
2018-06-27T21:59:29.042Z,98656.85
2018-06-27T22:01:57.495Z,98651.33
2018-06-27T22:04:25.861Z,98650.92
2018-06-27T22:06:53.975Z,98649.50
2018-06-27T22:09:22.319Z,98647.03
2018-06-27T22:11:50.500Z,98644.97
2018-06-27T22:14:18.903Z,98645.81
2018-06-27T22:16:47.256Z,98637.92
2018-06-27T22:19:15.621Z,98649.53
2018-06-27T22:21:44.177Z,98656.28
2018-06-27T22:24:12.382Z,98667.06
2018-06-27T22:26:40.547Z,98666.23
2018-06-27T22:29:08.726Z,98660.03
2018-06-27T22:31:36.668Z,98670.31
2018-06-27T22:34:05.078Z,98670.69
2018-06-27T22:36:33.460Z,98666.28
2018-06-27T22:39:01.631Z,98675.48
2018-06-27T22:41:30.103Z,98678.68
2018-06-27T22:43:58.284Z,98671.09
2018-06-27T22:46:26.863Z,98681.75
2018-06-27T22:48:55.163Z,98683.75
2018-06-27T22:51:23.623Z,98676.45
2018-06-27T22:53:52.089Z,98673.09
2018-06-27T22:56:20.433Z,98678.91
2018-06-27T22:58:48.864Z,98681.67
2018-06-27T23:01:17.222Z,98679.74
2018-06-27T23:03:45.511Z,98672.89
2018-06-27T23:06:14.114Z,98664.11
2018-06-27T23:08:42.463Z,98662.02
2018-06-27T23:11:10.438Z,98659.35
2018-06-27T23:13:38.854Z,98662.38
2018-06-27T23:16:07.293Z,98660.44
2018-06-27T23:18:35.735Z,98649.52
2018-06-27T23:21:04.139Z,98646.94
2018-06-27T23:23:32.630Z,98653.56
2018-06-27T23:26:00.893Z,98653.56
2018-06-27T23:28:29.177Z,98642.11
2018-06-27T23:30:57.446Z,98642.92
2018-06-27T23:33:25.860Z,98645.86
2018-06-27T23:35:53.894Z,98643.94
2018-06-27T23:38:22.166Z,98642.94
2018-06-27T23:40:50.555Z,98639.50
2018-06-27T23:43:18.488Z,98623.58
2018-06-27T23:45:46.750Z,98621.76
2018-06-27T23:48:15.114Z,98614.80
2018-06-27T23:50:43.693Z,98615.13
2018-06-27T23:53:11.947Z,98625.48
2018-06-27T23:55:40.371Z,98622.05
2018-06-27T23:58:08.614Z,98623.67
